sensor_id;sensor_type;location;lat;lon;timestamp;pressure;altitude;pressure_sealevel;temperature;humidity
28000;BME280;15328;50.860;10.562;2024-03-06T00:00:48;96547.53;;;6.66;70.11
28000;BME280;15328;50.860;10.562;2024-03-06T00:05:49;96551.25;;;6.71;70.55
28000;BME280;15328;50.860;10.562;2024-03-06T00:10:49;96555.63;;;6.58;70.59
28000;BME280;15328;50.860;10.562;2024-03-06T00:15:49;96563.28;;;6.53;70.70
28000;BME280;15328;50.860;10.562;2024-03-06T00:20:50;96559.22;;;6.57;70.86
28000;BME280;15328;50.860;10.562;2024-03-06T00:25:50;96562.16;;;6.62;70.73
28000;BME280;15328;50.860;10.562;2024-03-06T00:30:51;96564.22;;;6.66;70.07
28000;BME280;15328;50.860;10.562;2024-03-06T00:35:51;96580.72;;;6.68;70.15
28000;BME280;15328;50.860;10.562;2024-03-06T00:40:51;96575.81;;;6.65;70.31
28000;BME280;15328;50.860;10.562;2024-03-06T00:45:52;96583.16;;;6.70;69.88
28000;BME280;15328;50.860;10.562;2024-03-06T00:50:52;96588.41;;;6.63;70.28
28000;BME280;15328;50.860;10.562;2024-03-06T00:55:52;96591.03;;;6.63;70.47
28000;BME280;15328;50.860;10.562;2024-03-06T01:00:53;96594.31;;;6.65;70.72
28000;BME280;15328;50.860;10.562;2024-03-06T01:05:54;96592.69;;;6.64;70.51
28000;BME280;15328;50.860;10.562;2024-03-06T01:10:55;96598.34;;;6.61;70.67
28000;BME280;15328;50.860;10.562;2024-03-06T01:15:55;96604.38;;;6.55;71.35
28000;BME280;15328;50.860;10.562;2024-03-06T01:20:55;96611.66;;;6.53;70.63
28000;BME280;15328;50.860;10.562;2024-03-06T01:25:56;96611.84;;;6.51;71.44
28000;BME280;15328;50.860;10.562;2024-03-06T01:30:56;96608.28;;;6.59;71.10
28000;BME280;15328;50.860;10.562;2024-03-06T01:35:58;96603.47;;;6.48;71.38
28000;BME280;15328;50.860;10.562;2024-03-06T01:40:59;96608.06;;;6.39;71.54
28000;BME280;15328;50.860;10.562;2024-03-06T01:45:59;96608.28;;;6.38;71.38
28000;BME280;15328;50.860;10.562;2024-03-06T01:51:02;96608.84;;;6.33;71.64
28000;BME280;15328;50.860;10.562;2024-03-06T01:56:05;96613.31;;;6.33;71.50
28000;BME280;15328;50.860;10.562;2024-03-06T02:01:06;96612.81;;;6.29;71.91
28000;BME280;15328;50.860;10.562;2024-03-06T02:06:07;96614.31;;;6.32;72.09
28000;BME280;15328;50.860;10.562;2024-03-06T02:11:10;96614.88;;;6.48;71.63
28000;BME280;15328;50.860;10.562;2024-03-06T02:16:11;96610.03;;;6.52;71.02
28000;BME280;15328;50.860;10.562;2024-03-06T02:21:11;96619.16;;;6.49;71.41
28000;BME280;15328;50.860;10.562;2024-03-06T02:26:12;96624.06;;;6.53;71.59
28000;BME280;15328;50.860;10.562;2024-03-06T02:31:12;96617.84;;;6.39;71.77
28000;BME280;15328;50.860;10.562;2024-03-06T02:36:16;96618.03;;;6.37;72.22
28000;BME280;15328;50.860;10.562;2024-03-06T02:41:17;96622.94;;;6.40;72.45
28000;BME280;15328;50.860;10.562;2024-03-06T02:46:17;96619.22;;;6.35;72.41
28000;BME280;15328;50.860;10.562;2024-03-06T02:51:18;96620.13;;;6.27;72.55
28000;BME280;15328;50.860;10.562;2024-03-06T02:56:19;96612.38;;;6.26;72.68
28000;BME280;15328;50.860;10.562;2024-03-06T03:01:20;96614.03;;;6.27;72.75
28000;BME280;15328;50.860;10.562;2024-03-06T03:06:20;96619.72;;;6.09;71.98
28000;BME280;15328;50.860;10.562;2024-03-06T03:11:21;96622.63;;;5.99;73.52
28000;BME280;15328;50.860;10.562;2024-03-06T03:16:21;96619.34;;;6.12;73.16
28000;BME280;15328;50.860;10.562;2024-03-06T03:21:21;96622.06;;;6.18;72.97
28000;BME280;15328;50.860;10.562;2024-03-06T03:26:22;96633.72;;;6.24;73.00
28000;BME280;15328;50.860;10.562;2024-03-06T03:31:23;96639.53;;;6.34;72.64
28000;BME280;15328;50.860;10.562;2024-03-06T03:36:23;96648.38;;;6.27;72.88
28000;BME280;15328;50.860;10.562;2024-03-06T03:41:25;96643.09;;;6.27;72.78
28000;BME280;15328;50.860;10.562;2024-03-06T03:46:25;96647.34;;;6.42;72.43
28000;BME280;15328;50.860;10.562;2024-03-06T03:51:26;96653.56;;;6.35;72.18
28000;BME280;15328;50.860;10.562;2024-03-06T03:56:26;96665.22;;;6.40;72.12
28000;BME280;15328;50.860;10.562;2024-03-06T04:01:27;96669.03;;;6.38;71.86
28000;BME280;15328;50.860;10.562;2024-03-06T04:06:27;96680.06;;;6.27;71.70
28000;BME280;15328;50.860;10.562;2024-03-06T04:11:28;96677.81;;;6.24;72.05
28000;BME280;15328;50.860;10.562;2024-03-06T04:16:29;96681.25;;;6.24;72.03
28000;BME280;15328;50.860;10.562;2024-03-06T04:21:30;96687.84;;;6.13;72.19
28000;BME280;15328;50.860;10.562;2024-03-06T04:26:30;96690.31;;;6.15;72.66
28000;BME280;15328;50.860;10.562;2024-03-06T04:31:30;96687.03;;;6.13;72.25
28000;BME280;15328;50.860;10.562;2024-03-06T04:36:31;96692.28;;;6.28;71.28
28000;BME280;15328;50.860;10.562;2024-03-06T04:41:31;96693.84;;;6.22;72.13
28000;BME280;15328;50.860;10.562;2024-03-06T04:46:31;96702.03;;;6.27;71.99
28000;BME280;15328;50.860;10.562;2024-03-06T04:51:32;96699.38;;;6.27;71.40
28000;BME280;15328;50.860;10.562;2024-03-06T04:56:32;96707.03;;;6.37;71.34
28000;BME280;15328;50.860;10.562;2024-03-06T05:01:34;96722.72;;;6.38;71.11
28000;BME280;15328;50.860;10.562;2024-03-06T05:06:34;96716.78;;;6.36;70.98
28000;BME280;15328;50.860;10.562;2024-03-06T05:11:35;96722.25;;;6.35;71.11
28000;BME280;15328;50.860;10.562;2024-03-06T05:16:37;96732.84;;;6.35;71.00
28000;BME280;15328;50.860;10.562;2024-03-06T05:21:37;96727.91;;;6.32;70.94
28000;BME280;15328;50.860;10.562;2024-03-06T05:26:38;96723.09;;;6.35;70.46
28000;BME280;15328;50.860;10.562;2024-03-06T05:31:38;96735.28;;;6.36;69.71
28000;BME280;15328;50.860;10.562;2024-03-06T05:36:38;96742.22;;;6.23;70.31
28000;BME280;15328;50.860;10.562;2024-03-06T05:41:39;96748.78;;;6.12;70.34
28000;BME280;15328;50.860;10.562;2024-03-06T05:46:40;96752.44;;;6.11;71.12
28000;BME280;15328;50.860;10.562;2024-03-06T05:51:40;96760.09;;;6.06;70.36
28000;BME280;15328;50.860;10.562;2024-03-06T05:56:41;96757.03;;;5.94;70.79
28000;BME280;15328;50.860;10.562;2024-03-06T06:01:42;96753.00;;;5.83;71.79
28000;BME280;15328;50.860;10.562;2024-03-06T06:06:42;96774.13;;;5.83;71.94
28000;BME280;15328;50.860;10.562;2024-03-06T06:11:44;96786.75;;;5.73;71.48
28000;BME280;15328;50.860;10.562;2024-03-06T06:16:44;96790.50;;;5.79;71.98
28000;BME280;15328;50.860;10.562;2024-03-06T06:21:45;96799.06;;;5.81;71.42
28000;BME280;15328;50.860;10.562;2024-03-06T06:26:46;96794.03;;;5.71;72.33
28000;BME280;15328;50.860;10.562;2024-03-06T06:31:47;96805.19;;;5.81;72.10
28000;BME280;15328;50.860;10.562;2024-03-06T06:36:47;96809.91;;;5.86;72.09
28000;BME280;15328;50.860;10.562;2024-03-06T06:41:47;96822.66;;;5.82;71.67
28000;BME280;15328;50.860;10.562;2024-03-06T06:46:48;96819.75;;;5.77;71.60
28000;BME280;15328;50.860;10.562;2024-03-06T06:51:48;96828.81;;;5.75;72.39
28000;BME280;15328;50.860;10.562;2024-03-06T06:56:49;96821.66;;;5.83;72.12
28000;BME280;15328;50.860;10.562;2024-03-06T07:01:50;96836.50;;;5.84;72.35
28000;BME280;15328;50.860;10.562;2024-03-06T07:06:50;96840.50;;;5.80;72.55
28000;BME280;15328;50.860;10.562;2024-03-06T07:11:50;96844.59;;;5.83;72.21
28000;BME280;15328;50.860;10.562;2024-03-06T07:16:52;96848.88;;;5.84;72.34
28000;BME280;15328;50.860;10.562;2024-03-06T07:21:52;96849.59;;;5.78;72.37
28000;BME280;15328;50.860;10.562;2024-03-06T07:26:53;96849.59;;;5.78;72.56
28000;BME280;15328;50.860;10.562;2024-03-06T07:31:54;96845.81;;;5.72;72.22
28000;BME280;15328;50.860;10.562;2024-03-06T07:36:54;96859.72;;;5.66;73.03
28000;BME280;15328;50.860;10.562;2024-03-06T07:41:54;96865.13;;;5.73;72.50
28000;BME280;15328;50.860;10.562;2024-03-06T07:46:55;96874.84;;;5.72;73.52
28000;BME280;15328;50.860;10.562;2024-03-06T07:51:55;96880.97;;;5.73;72.67
28000;BME280;15328;50.860;10.562;2024-03-06T07:56:57;96884.59;;;5.72;72.87
28000;BME280;15328;50.860;10.562;2024-03-06T08:01:57;96892.16;;;5.75;72.87
28000;BME280;15328;50.860;10.562;2024-03-06T08:06:57;96900.09;;;5.75;73.04
28000;BME280;15328;50.860;10.562;2024-03-06T08:11:58;96902.69;;;5.83;73.02
28000;BME280;15328;50.860;10.562;2024-03-06T08:16:59;96908.16;;;5.81;73.17
28000;BME280;15328;50.860;10.562;2024-03-06T08:21:59;96907.78;;;5.84;73.22
28000;BME280;15328;50.860;10.562;2024-03-06T08:27:01;96913.97;;;5.77;73.22
28000;BME280;15328;50.860;10.562;2024-03-06T08:32:02;96917.53;;;5.84;73.46
28000;BME280;15328;50.860;10.562;2024-03-06T08:37:04;96923.41;;;5.94;72.78
28000;BME280;15328;50.860;10.562;2024-03-06T08:42:04;96924.28;;;5.86;72.33
28000;BME280;15328;50.860;10.562;2024-03-06T08:47:05;96920.34;;;5.82;72.96
28000;BME280;15328;50.860;10.562;2024-03-06T08:52:05;96930.88;;;5.91;73.01
28000;BME280;15328;50.860;10.562;2024-03-06T08:57:06;96929.22;;;5.89;72.89
28000;BME280;15328;50.860;10.562;2024-03-06T09:02:17;96939.44;;;5.93;73.65
28000;BME280;15328;50.860;10.562;2024-03-06T09:07:19;96934.88;;;6.09;74.22
28000;BME280;15328;50.860;10.562;2024-03-06T09:12:20;96943.81;;;6.23;73.50
28000;BME280;15328;50.860;10.562;2024-03-06T09:17:20;96953.97;;;6.34;73.24
28000;BME280;15328;50.860;10.562;2024-03-06T09:22:20;96954.25;;;6.39;73.04
28000;BME280;15328;50.860;10.562;2024-03-06T09:27:21;96952.53;;;6.46;72.94
28000;BME280;15328;50.860;10.562;2024-03-06T09:32:21;96959.38;;;6.56;72.53
28000;BME280;15328;50.860;10.562;2024-03-06T09:37:22;96959.41;;;6.70;72.34
28000;BME280;15328;50.860;10.562;2024-03-06T09:42:22;96967.63;;;6.75;72.15
28000;BME280;15328;50.860;10.562;2024-03-06T09:47:25;96977.59;;;6.88;72.24
28000;BME280;15328;50.860;10.562;2024-03-06T09:52:28;96981.03;;;7.03;72.45
28000;BME280;15328;50.860;10.562;2024-03-06T09:57:29;96985.53;;;7.18;71.36
28000;BME280;15328;50.860;10.562;2024-03-06T10:02:41;96991.28;;;7.21;71.40
28000;BME280;15328;50.860;10.562;2024-03-06T10:07:46;96986.06;;;7.28;70.84
28000;BME280;15328;50.860;10.562;2024-03-06T10:12:46;96998.66;;;7.26;70.12
28000;BME280;15328;50.860;10.562;2024-03-06T10:17:48;97005.94;;;7.38;70.28
28000;BME280;15328;50.860;10.562;2024-03-06T10:22:50;97012.06;;;7.54;69.67
28000;BME280;15328;50.860;10.562;2024-03-06T10:33:10;97017.78;;;7.72;69.81
28000;BME280;15328;50.860;10.562;2024-03-06T10:38:11;97022.34;;;7.63;68.54
28000;BME280;15328;50.860;10.562;2024-03-06T10:43:12;97017.63;;;7.59;68.00
28000;BME280;15328;50.860;10.562;2024-03-06T10:48:14;97016.53;;;7.53;68.00
28000;BME280;15328;50.860;10.562;2024-03-06T10:53:16;97019.81;;;7.55;68.29
28000;BME280;15328;50.860;10.562;2024-03-06T10:58:18;97022.09;;;7.58;68.14
28000;BME280;15328;50.860;10.562;2024-03-06T11:03:19;97024.56;;;7.60;68.44
28000;BME280;15328;50.860;10.562;2024-03-06T11:08:19;97027.13;;;7.68;67.87
28000;BME280;15328;50.860;10.562;2024-03-06T11:23:31;97030.09;;;7.80;66.68
28000;BME280;15328;50.860;10.562;2024-03-06T11:28:33;97032.63;;;7.88;67.23
28000;BME280;15328;50.860;10.562;2024-03-06T11:33:39;97032.03;;;8.07;67.30
28000;BME280;15328;50.860;10.562;2024-03-06T11:38:40;97030.09;;;8.16;65.77
28000;BME280;15328;50.860;10.562;2024-03-06T11:43:44;97030.09;;;8.16;64.28
28000;BME280;15328;50.860;10.562;2024-03-06T11:48:51;97028.50;;;8.21;65.32
28000;BME280;15328;50.860;10.562;2024-03-06T11:53:52;97031.88;;;8.30;64.76
28000;BME280;15328;50.860;10.562;2024-03-06T11:58:54;97027.69;;;8.35;64.66
28000;BME280;15328;50.860;10.562;2024-03-06T12:03:54;97032.53;;;8.53;64.44
28000;BME280;15328;50.860;10.562;2024-03-06T12:08:54;97024.19;;;8.78;64.59
28000;BME280;15328;50.860;10.562;2024-03-06T12:13:55;97031.38;;;9.12;64.01
28000;BME280;15328;50.860;10.562;2024-03-06T12:18:57;97033.97;;;9.33;61.50
28000;BME280;15328;50.860;10.562;2024-03-06T12:24:04;97030.63;;;9.59;62.43
28000;BME280;15328;50.860;10.562;2024-03-06T12:29:09;97031.59;;;9.93;61.32
28000;BME280;15328;50.860;10.562;2024-03-06T12:34:13;97035.63;;;10.36;60.60
28000;BME280;15328;50.860;10.562;2024-03-06T12:39:17;97028.91;;;10.60;57.76
28000;BME280;15328;50.860;10.562;2024-03-06T12:44:23;97026.25;;;10.47;56.63
28000;BME280;15328;50.860;10.562;2024-03-06T12:49:23;97030.09;;;10.38;56.17
28000;BME280;15328;50.860;10.562;2024-03-06T12:54:24;97027.44;;;10.31;55.28
28000;BME280;15328;50.860;10.562;2024-03-06T12:59:24;97030.66;;;10.20;55.58
28000;BME280;15328;50.860;10.562;2024-03-06T13:04:24;97024.94;;;10.16;55.19
28000;BME280;15328;50.860;10.562;2024-03-06T13:09:25;97029.16;;;9.98;55.03
28000;BME280;15328;50.860;10.562;2024-03-06T13:14:25;97029.09;;;9.84;55.46
28000;BME280;15328;50.860;10.562;2024-03-06T13:19:25;97027.22;;;9.72;55.68
28000;BME280;15328;50.860;10.562;2024-03-06T13:24:26;97024.78;;;9.83;55.56
28000;BME280;15328;50.860;10.562;2024-03-06T13:29:26;97025.19;;;9.74;55.06
28000;BME280;15328;50.860;10.562;2024-03-06T13:34:26;97021.25;;;9.63;55.53
28000;BME280;15328;50.860;10.562;2024-03-06T13:39:27;97019.25;;;9.72;55.57
28000;BME280;15328;50.860;10.562;2024-03-06T13:44:27;97020.47;;;9.76;55.60
28000;BME280;15328;50.860;10.562;2024-03-06T13:49:41;97025.38;;;9.79;55.95
28000;BME280;15328;50.860;10.562;2024-03-06T13:54:42;97030.31;;;9.82;55.10
28000;BME280;15328;50.860;10.562;2024-03-06T13:59:42;97039.97;;;9.89;55.79
28000;BME280;15328;50.860;10.562;2024-03-06T14:04:43;97040.63;;;10.05;54.71
28000;BME280;15328;50.860;10.562;2024-03-06T14:09:43;97039.59;;;10.06;54.31
28000;BME280;15328;50.860;10.562;2024-03-06T14:14:44;97038.06;;;10.31;54.32
28000;BME280;15328;50.860;10.562;2024-03-06T14:19:47;97029.31;;;10.57;52.15
28000;BME280;15328;50.860;10.562;2024-03-06T14:24:48;97032.19;;;10.56;52.10
28000;BME280;15328;50.860;10.562;2024-03-06T14:29:48;97042.63;;;10.57;52.10
28000;BME280;15328;50.860;10.562;2024-03-06T14:34:49;97038.94;;;10.58;52.59
28000;BME280;15328;50.860;10.562;2024-03-06T14:39:49;97043.84;;;10.61;52.60
28000;BME280;15328;50.860;10.562;2024-03-06T14:44:51;97038.94;;;10.51;52.41
28000;BME280;15328;50.860;10.562;2024-03-06T14:49:51;97048.34;;;10.47;51.84
28000;BME280;15328;50.860;10.562;2024-03-06T14:54:51;97045.06;;;10.45;51.49
28000;BME280;15328;50.860;10.562;2024-03-06T14:59:52;97050.75;;;10.36;51.44
28000;BME280;15328;50.860;10.562;2024-03-06T15:04:52;97051.31;;;10.18;51.63
28000;BME280;15328;50.860;10.562;2024-03-06T15:09:53;97056.38;;;10.06;51.75
28000;BME280;15328;50.860;10.562;2024-03-06T15:14:53;97055.13;;;10.02;52.21
28000;BME280;15328;50.860;10.562;2024-03-06T15:19:57;97052.47;;;10.02;52.52
28000;BME280;15328;50.860;10.562;2024-03-06T15:24:57;97059.44;;;10.03;52.17
28000;BME280;15328;50.860;10.562;2024-03-06T15:29:57;97061.66;;;10.00;51.22
28000;BME280;15328;50.860;10.562;2024-03-06T15:34:57;97054.28;;;9.88;51.69
28000;BME280;15328;50.860;10.562;2024-03-06T15:39:58;97060.59;;;9.87;52.10
28000;BME280;15328;50.860;10.562;2024-03-06T15:44:59;97062.63;;;9.85;52.38
28000;BME280;15328;50.860;10.562;2024-03-06T15:49:59;97066.06;;;9.79;52.45
28000;BME280;15328;50.860;10.562;2024-03-06T15:55:00;97065.84;;;9.74;52.81
28000;BME280;15328;50.860;10.562;2024-03-06T16:00:00;97057.84;;;9.68;52.50
28000;BME280;15328;50.860;10.562;2024-03-06T16:05:01;97072.28;;;9.58;52.49
28000;BME280;15328;50.860;10.562;2024-03-06T16:10:01;97079.41;;;9.51;52.93
28000;BME280;15328;50.860;10.562;2024-03-06T16:15:03;97074.47;;;9.48;53.15
28000;BME280;15328;50.860;10.562;2024-03-06T16:20:07;97083.81;;;9.38;53.70
28000;BME280;15328;50.860;10.562;2024-03-06T16:25:08;97087.44;;;9.30;53.77
28000;BME280;15328;50.860;10.562;2024-03-06T16:30:08;97086.81;;;9.28;53.63
28000;BME280;15328;50.860;10.562;2024-03-06T16:35:09;97095.94;;;9.19;53.72
28000;BME280;15328;50.860;10.562;2024-03-06T16:40:10;97099.56;;;9.11;53.71
28000;BME280;15328;50.860;10.562;2024-03-06T16:45:11;97105.66;;;9.05;53.78
28000;BME280;15328;50.860;10.562;2024-03-06T16:50:12;97105.66;;;9.05;53.60
28000;BME280;15328;50.860;10.562;2024-03-06T16:55:15;97116.75;;;8.94;54.31
28000;BME280;15328;50.860;10.562;2024-03-06T17:00:16;97122.84;;;8.88;54.07
28000;BME280;15328;50.860;10.562;2024-03-06T17:05:17;97129.91;;;8.81;54.69
28000;BME280;15328;50.860;10.562;2024-03-06T17:10:18;97124.41;;;8.82;54.84
28000;BME280;15328;50.860;10.562;2024-03-06T17:15:18;97135.31;;;8.73;54.23
28000;BME280;15328;50.860;10.562;2024-03-06T17:20:19;97138.88;;;8.58;54.46
28000;BME280;15328;50.860;10.562;2024-03-06T17:25:20;97143.63;;;8.48;54.38
28000;BME280;15328;50.860;10.562;2024-03-06T17:30:20;97144.84;;;8.31;54.88
28000;BME280;15328;50.860;10.562;2024-03-06T17:35:22;97142.75;;;8.26;55.32
28000;BME280;15328;50.860;10.562;2024-03-06T17:40:22;97148.78;;;8.20;55.82
28000;BME280;15328;50.860;10.562;2024-03-06T17:45:26;97146.13;;;8.20;55.75
28000;BME280;15328;50.860;10.562;2024-03-06T17:50:26;97156.09;;;8.18;55.84
28000;BME280;15328;50.860;10.562;2024-03-06T17:55:26;97163.34;;;8.10;56.01
28000;BME280;15328;50.860;10.562;2024-03-06T18:00:27;97169.31;;;7.97;56.30
28000;BME280;15328;50.860;10.562;2024-03-06T18:05:28;97167.66;;;7.96;56.77
28000;BME280;15328;50.860;10.562;2024-03-06T18:10:31;97168.28;;;7.83;56.50
28000;BME280;15328;50.860;10.562;2024-03-06T18:15:33;97170.41;;;7.73;56.79
28000;BME280;15328;50.860;10.562;2024-03-06T18:20:33;97172.41;;;7.71;57.13
28000;BME280;15328;50.860;10.562;2024-03-06T18:25:33;97170.44;;;7.65;57.18
28000;BME280;15328;50.860;10.562;2024-03-06T18:30:34;97186.47;;;7.71;57.41
28000;BME280;15328;50.860;10.562;2024-03-06T18:35:34;97190.75;;;7.72;56.93
28000;BME280;15328;50.860;10.562;2024-03-06T18:40:37;97188.00;;;7.66;57.08
28000;BME280;15328;50.860;10.562;2024-03-06T18:45:38;97194.66;;;7.62;57.00
28000;BME280;15328;50.860;10.562;2024-03-06T18:50:38;97197.22;;;7.55;56.46
28000;BME280;15328;50.860;10.562;2024-03-06T18:55:39;97197.13;;;7.49;56.42
28000;BME280;15328;50.860;10.562;2024-03-06T19:00:39;97203.00;;;7.36;56.37
28000;BME280;15328;50.860;10.562;2024-03-06T19:05:39;97200.44;;;7.28;56.37
28000;BME280;15328;50.860;10.562;2024-03-06T19:10:40;97202.88;;;7.15;56.48
28000;BME280;15328;50.860;10.562;2024-03-06T19:15:40;97210.31;;;7.11;56.71
28000;BME280;15328;50.860;10.562;2024-03-06T19:20:40;97214.03;;;7.25;56.15
28000;BME280;15328;50.860;10.562;2024-03-06T19:25:41;97212.81;;;7.12;56.07
28000;BME280;15328;50.860;10.562;2024-03-06T19:30:41;97201.97;;;6.99;56.07
28000;BME280;15328;50.860;10.562;2024-03-06T19:35:42;97204.72;;;6.83;56.31
28000;BME280;15328;50.860;10.562;2024-03-06T19:40:43;97206.91;;;6.79;56.55
28000;BME280;15328;50.860;10.562;2024-03-06T19:45:43;97209.72;;;6.78;56.10
28000;BME280;15328;50.860;10.562;2024-03-06T19:50:43;97217.19;;;6.74;56.39
28000;BME280;15328;50.860;10.562;2024-03-06T19:55:46;97216.53;;;6.72;56.54
28000;BME280;15328;50.860;10.562;2024-03-06T20:00:48;97212.72;;;6.75;56.87
28000;BME280;15328;50.860;10.562;2024-03-06T20:05:48;97220.13;;;6.79;56.40
28000;BME280;15328;50.860;10.562;2024-03-06T20:10:48;97217.84;;;6.76;56.38
28000;BME280;15328;50.860;10.562;2024-03-06T20:15:49;97219.06;;;6.66;56.98
28000;BME280;15328;50.860;10.562;2024-03-06T20:20:49;97218.53;;;6.70;56.73
28000;BME280;15328;50.860;10.562;2024-03-06T20:25:50;97225.81;;;6.68;56.57
28000;BME280;15328;50.860;10.562;2024-03-06T20:30:50;97229.28;;;6.69;56.82
28000;BME280;15328;50.860;10.562;2024-03-06T20:35:52;97226.69;;;6.61;57.08
28000;BME280;15328;50.860;10.562;2024-03-06T20:40:53;97230.00;;;6.63;56.95
28000;BME280;15328;50.860;10.562;2024-03-06T20:45:53;97233.63;;;6.62;56.87
28000;BME280;15328;50.860;10.562;2024-03-06T20:50:54;97237.28;;;6.53;56.39
28000;BME280;15328;50.860;10.562;2024-03-06T20:55:55;97246.09;;;6.45;55.91
28000;BME280;15328;50.860;10.562;2024-03-06T21:00:55;97241.53;;;6.31;56.00
28000;BME280;15328;50.860;10.562;2024-03-06T21:05:56;97243.88;;;6.17;55.86
28000;BME280;15328;50.860;10.562;2024-03-06T21:10:56;97232.41;;;5.94;56.47
28000;BME280;15328;50.860;10.562;2024-03-06T21:15:58;97232.41;;;5.94;56.39
28000;BME280;15328;50.860;10.562;2024-03-06T21:20:59;97225.28;;;5.86;56.03
28000;BME280;15328;50.860;10.562;2024-03-06T21:26:00;97226.63;;;5.74;56.51
28000;BME280;15328;50.860;10.562;2024-03-06T21:31:00;97223.50;;;5.79;56.20
28000;BME280;15328;50.860;10.562;2024-03-06T21:36:01;97230.78;;;5.69;55.56
28000;BME280;15328;50.860;10.562;2024-03-06T21:41:01;97231.28;;;5.56;56.42
28000;BME280;15328;50.860;10.562;2024-03-06T21:46:02;97236.44;;;5.49;55.86
28000;BME280;15328;50.860;10.562;2024-03-06T21:51:03;97240.22;;;5.39;55.98
28000;BME280;15328;50.860;10.562;2024-03-06T21:56:03;97243.84;;;5.30;56.34
28000;BME280;15328;50.860;10.562;2024-03-06T22:01:04;97238.38;;;5.15;56.47
28000;BME280;15328;50.860;10.562;2024-03-06T22:06:05;97241.34;;;5.04;57.16
28000;BME280;15328;50.860;10.562;2024-03-06T22:11:06;97229.81;;;4.96;57.48
28000;BME280;15328;50.860;10.562;2024-03-06T22:16:11;97232.09;;;4.91;57.26
28000;BME280;15328;50.860;10.562;2024-03-06T22:21:12;97232.75;;;4.77;57.64
28000;BME280;15328;50.860;10.562;2024-03-06T22:26:14;97230.28;;;4.68;57.96
28000;BME280;15328;50.860;10.562;2024-03-06T22:31:14;97228.59;;;4.58;57.78
28000;BME280;15328;50.860;10.562;2024-03-06T22:36:15;97226.75;;;4.43;58.48
28000;BME280;15328;50.860;10.562;2024-03-06T22:41:22;97229.16;;;4.36;58.55
28000;BME280;15328;50.860;10.562;2024-03-06T22:46:23;97231.63;;;4.29;58.02
28000;BME280;15328;50.860;10.562;2024-03-06T22:51:23;97227.81;;;4.24;59.01
28000;BME280;15328;50.860;10.562;2024-03-06T22:56:23;97223.50;;;4.15;59.04
28000;BME280;15328;50.860;10.562;2024-03-06T23:01:24;97223.28;;;4.08;59.52
28000;BME280;15328;50.860;10.562;2024-03-06T23:06:25;97214.22;;;4.02;59.85
28000;BME280;15328;50.860;10.562;2024-03-06T23:11:25;97215.16;;;3.85;59.66
28000;BME280;15328;50.860;10.562;2024-03-06T23:16:25;97209.72;;;3.87;59.88
28000;BME280;15328;50.860;10.562;2024-03-06T23:21:25;97215.75;;;3.79;59.84
28000;BME280;15328;50.860;10.562;2024-03-06T23:26:26;97217.56;;;3.79;60.04
28000;BME280;15328;50.860;10.562;2024-03-06T23:31:26;97210.28;;;3.72;60.62
28000;BME280;15328;50.860;10.562;2024-03-06T23:36:27;97209.78;;;3.69;60.55
28000;BME280;15328;50.860;10.562;2024-03-06T23:41:27;97214.34;;;3.59;60.79
28000;BME280;15328;50.860;10.562;2024-03-06T23:46:29;97211.88;;;3.57;60.72
28000;BME280;15328;50.860;10.562;2024-03-06T23:51:29;97208.19;;;3.50;61.05
28000;BME280;15328;50.860;10.562;2024-03-06T23:56:29;97217.38;;;3.46;61.05
